createdAt,value
2023-03-04T00:02:22.087Z,88.79
2023-03-04T00:04:48.961Z,89.01
2023-03-04T00:07:17.059Z,89.39
2023-03-04T00:09:45.304Z,88.59
2023-03-04T00:12:13.255Z,89.03
2023-03-04T00:14:40.104Z,90.91
2023-03-04T00:17:07.664Z,88.43
2023-03-04T00:19:35.393Z,88.14
2023-03-04T00:22:04.144Z,89.45
2023-03-04T00:24:32.315Z,90.52
2023-03-04T00:26:59.476Z,91.19
2023-03-04T00:29:26.539Z,90.16
2023-03-04T00:31:53.819Z,89.67
2023-03-04T00:34:20.824Z,90.21
2023-03-04T00:36:47.677Z,90.35
2023-03-04T00:39:15.078Z,90.99
2023-03-04T00:41:41.850Z,90.62
2023-03-04T00:44:08.591Z,89.28
2023-03-04T00:46:35.413Z,88.57
2023-03-04T00:49:02.296Z,88.59
2023-03-04T00:51:29.171Z,89.66
2023-03-04T00:53:55.908Z,88.92
2023-03-04T00:56:22.731Z,89.10
2023-03-04T00:58:49.439Z,90.61
2023-03-04T01:01:16.364Z,90.27
2023-03-04T01:03:43.206Z,90.17
2023-03-04T01:06:11.357Z,90.69
2023-03-04T01:08:39.259Z,90.85
2023-03-04T01:11:06.593Z,90.05
2023-03-04T01:13:33.720Z,89.82
2023-03-04T01:16:00.536Z,88.58
2023-03-04T01:18:27.336Z,90.47
2023-03-04T01:20:54.121Z,90.50
2023-03-04T01:23:20.895Z,90.88
2023-03-04T01:25:47.730Z,91.64
2023-03-04T01:28:14.487Z,91.01
2023-03-04T01:30:41.621Z,90.92
2023-03-04T01:33:08.552Z,90.87
2023-03-04T01:35:36.250Z,89.17
2023-03-04T01:38:03.867Z,89.83
2023-03-04T01:40:31.713Z,91.24
2023-03-04T01:42:58.926Z,91.42
2023-03-04T01:45:25.730Z,89.79
2023-03-04T01:47:52.688Z,91.31
2023-03-04T01:50:34.560Z,92.28
2023-03-04T01:53:02.660Z,91.33
2023-03-04T01:55:30.680Z,91.81
2023-03-04T01:57:57.687Z,92.18
2023-03-04T02:00:33.533Z,92.69
2023-03-04T02:03:04.455Z,93.09
2023-03-04T02:05:31.670Z,92.98
2023-03-04T02:08:00.277Z,93.18
2023-03-04T02:10:27.902Z,90.50
2023-03-04T02:12:54.717Z,90.68
2023-03-04T02:15:22.083Z,94.63
2023-03-04T02:17:48.977Z,93.80
2023-03-04T02:20:23.994Z,93.66
2023-03-04T02:23:15.138Z,94.85
2023-03-04T02:26:03.201Z,93.77
2023-03-04T02:28:30.443Z,92.49
2023-03-04T02:30:57.170Z,93.18
2023-03-04T02:33:24.164Z,91.55
2023-03-04T02:35:51.644Z,93.02
2023-03-04T02:38:18.747Z,92.70
2023-03-04T02:40:48.664Z,93.46
2023-03-04T02:43:15.515Z,95.50
2023-03-04T02:45:45.902Z,95.13
2023-03-04T02:48:13.668Z,94.69
2023-03-04T02:50:52.545Z,95.34
2023-03-04T02:53:20.881Z,94.56
2023-03-04T02:55:49.076Z,93.27
2023-03-04T02:58:16.641Z,94.42
2023-03-04T03:00:43.464Z,93.36
2023-03-04T03:03:10.967Z,94.42
2023-03-04T03:05:38.559Z,94.65
2023-03-04T03:08:07.198Z,93.32
2023-03-04T03:10:34.173Z,92.83
2023-03-04T03:13:02.082Z,92.17
2023-03-04T03:15:29.721Z,94.49
2023-03-04T03:17:56.991Z,94.30
2023-03-04T03:20:23.773Z,95.56
2023-03-04T03:22:50.565Z,96.00
2023-03-04T03:25:17.635Z,95.99
2023-03-04T03:27:44.705Z,93.59
2023-03-04T03:30:15.723Z,93.55
2023-03-04T03:32:42.395Z,94.58
2023-03-04T03:35:10.309Z,94.52
2023-03-04T03:37:37.264Z,94.42
2023-03-04T03:40:04.958Z,95.08
2023-03-04T03:42:31.609Z,94.59
2023-03-04T03:44:58.308Z,92.61
2023-03-04T03:47:25.082Z,91.92
2023-03-04T03:49:51.776Z,93.86
2023-03-04T03:52:18.533Z,94.33
2023-03-04T03:54:45.238Z,92.90
2023-03-04T03:57:12.191Z,93.47
2023-03-04T03:59:39.066Z,92.25
2023-03-04T04:02:05.789Z,91.04
2023-03-04T04:04:33.104Z,91.74
2023-03-04T04:06:59.895Z,92.79
2023-03-04T04:09:26.825Z,92.47
2023-03-04T04:11:53.590Z,93.66
2023-03-04T04:14:20.379Z,92.48
2023-03-04T04:16:47.237Z,93.84
2023-03-04T04:19:20.798Z,94.19
2023-03-04T04:21:47.856Z,94.18
2023-03-04T04:24:14.648Z,93.54
2023-03-04T04:26:41.831Z,94.49
2023-03-04T04:29:09.511Z,92.30
2023-03-04T04:31:36.404Z,90.92
2023-03-04T04:34:03.602Z,92.26
2023-03-04T04:36:30.324Z,91.77
2023-03-04T04:38:57.690Z,92.75
2023-03-04T04:41:27.364Z,92.11
2023-03-04T04:43:54.115Z,92.58
2023-03-04T04:46:21.051Z,93.75
2023-03-04T04:48:47.980Z,95.05
2023-03-04T04:51:14.793Z,94.70
2023-03-04T04:53:41.549Z,93.97
2023-03-04T04:56:13.757Z,93.54
2023-03-04T04:58:40.696Z,94.16
2023-03-04T05:01:07.955Z,94.39
2023-03-04T05:03:35.785Z,94.56
2023-03-04T05:06:03.090Z,95.94
2023-03-04T05:08:29.953Z,94.83
2023-03-04T05:10:56.672Z,97.12
2023-03-04T05:13:23.582Z,96.18
2023-03-04T05:15:54.939Z,95.51
2023-03-04T05:18:22.856Z,95.47
2023-03-04T05:20:54.438Z,95.47
2023-03-04T05:23:21.172Z,96.41
2023-03-04T05:25:48.121Z,96.06
2023-03-04T05:28:15.236Z,95.71
2023-03-04T05:30:43.461Z,94.30
2023-03-04T05:33:11.754Z,93.73
2023-03-04T05:35:40.238Z,93.92
2023-03-04T05:38:09.451Z,93.35
2023-03-04T05:40:37.003Z,94.72
2023-03-04T05:43:03.919Z,98.99
2023-03-04T05:45:30.946Z,97.22
2023-03-04T05:47:57.570Z,98.20
2023-03-04T05:50:24.453Z,99.60
2023-03-04T05:52:53.204Z,100.00
2023-03-04T05:55:20.071Z,100.00
2023-03-04T05:57:47.518Z,100.00
2023-03-04T06:00:16.142Z,100.00
2023-03-04T06:02:44.511Z,100.00
2023-03-04T06:05:13.106Z,100.00
2023-03-04T06:07:40.080Z,100.00
2023-03-04T06:10:07.890Z,100.00
2023-03-04T06:12:34.364Z,100.00
2023-03-04T06:15:01.171Z,100.00
2023-03-04T06:17:27.715Z,100.00
2023-03-04T06:19:54.344Z,100.00
2023-03-04T06:22:21.034Z,100.00
2023-03-04T06:24:47.626Z,100.00
2023-03-04T06:27:14.262Z,100.00
2023-03-04T06:29:40.917Z,100.00
2023-03-04T06:32:07.656Z,100.00
2023-03-04T06:34:34.392Z,100.00
2023-03-04T06:37:00.966Z,100.00
2023-03-04T06:39:27.657Z,100.00
2023-03-04T06:41:54.206Z,100.00
2023-03-04T06:44:20.868Z,100.00
2023-03-04T06:46:47.498Z,100.00
2023-03-04T06:49:14.108Z,100.00
2023-03-04T06:51:40.743Z,100.00
2023-03-04T06:54:07.368Z,100.00
2023-03-04T06:56:33.943Z,100.00
2023-03-04T06:59:00.466Z,100.00
2023-03-04T07:01:28.695Z,100.00
2023-03-04T07:03:57.075Z,100.00
2023-03-04T07:06:27.300Z,100.00
2023-03-04T07:08:54.646Z,100.00
2023-03-04T07:11:22.091Z,100.00
2023-03-04T07:13:49.394Z,100.00
2023-03-04T07:16:21.802Z,100.00
2023-03-04T07:18:48.620Z,100.00
2023-03-04T07:21:16.850Z,100.00
2023-03-04T07:23:43.950Z,100.00
2023-03-04T07:26:10.765Z,100.00
2023-03-04T07:28:37.733Z,100.00
2023-03-04T07:31:20.639Z,100.00
2023-03-04T07:33:47.471Z,100.00
2023-03-04T07:36:17.015Z,100.00
2023-03-04T07:38:46.026Z,100.00
2023-03-04T07:41:12.626Z,100.00
2023-03-04T07:43:39.233Z,100.00
2023-03-04T07:46:06.309Z,100.00
2023-03-04T07:48:32.989Z,100.00
2023-03-04T07:51:27.011Z,100.00
2023-03-04T07:53:56.650Z,100.00
2023-03-04T07:56:24.183Z,100.00
2023-03-04T07:58:53.633Z,100.00
2023-03-04T08:01:27.511Z,100.00
2023-03-04T08:03:54.289Z,100.00
2023-03-04T08:06:22.038Z,100.00
2023-03-04T08:08:50.022Z,100.00
2023-03-04T08:11:21.371Z,100.00
2023-03-04T08:13:48.483Z,100.00
2023-03-04T08:16:19.250Z,100.00
2023-03-04T08:18:48.313Z,100.00
2023-03-04T08:21:18.379Z,100.00
2023-03-04T08:23:46.146Z,100.00
2023-03-04T08:26:26.272Z,100.00
2023-03-04T08:28:54.022Z,100.00
2023-03-04T08:31:22.054Z,100.00
2023-03-04T08:33:48.989Z,100.00
2023-03-04T08:36:15.792Z,100.00
2023-03-04T08:38:42.945Z,100.00
2023-03-04T08:41:13.016Z,100.00
2023-03-04T08:43:42.777Z,100.00
2023-03-04T08:46:09.432Z,100.00
2023-03-04T08:48:38.086Z,100.00
2023-03-04T08:51:13.383Z,100.00
2023-03-04T08:53:40.167Z,100.00
2023-03-04T08:56:07.937Z,100.00
2023-03-04T08:58:34.650Z,100.00
2023-03-04T09:01:02.413Z,100.00
2023-03-04T09:03:29.014Z,100.00
2023-03-04T09:05:55.932Z,100.00
2023-03-04T09:08:22.797Z,100.00
2023-03-04T09:10:52.856Z,100.00
2023-03-04T09:13:19.499Z,100.00
2023-03-04T09:15:47.880Z,100.00
2023-03-04T09:18:14.873Z,100.00
2023-03-04T09:20:41.545Z,100.00
2023-03-04T09:23:09.559Z,100.00
2023-03-04T09:25:37.224Z,100.00
2023-03-04T09:28:04.064Z,100.00
2023-03-04T09:30:30.764Z,100.00
2023-03-04T09:32:57.565Z,100.00
2023-03-04T09:35:27.644Z,100.00
2023-03-04T09:37:54.499Z,100.00
2023-03-04T09:40:24.585Z,100.00
2023-03-04T09:42:58.807Z,100.00
2023-03-04T09:45:34.533Z,100.00
2023-03-04T09:48:01.712Z,100.00
2023-03-04T09:50:33.637Z,100.00
2023-03-04T09:53:18.792Z,100.00
2023-03-04T09:55:50.734Z,100.00
2023-03-04T09:58:41.746Z,100.00
2023-03-04T10:01:20.508Z,100.00
2023-03-04T10:03:51.859Z,100.00
2023-03-04T10:06:23.380Z,100.00
2023-03-04T10:09:15.422Z,100.00
2023-03-04T10:11:46.357Z,100.00
2023-03-04T10:14:22.286Z,100.00
2023-03-04T10:17:00.700Z,100.00
2023-03-04T10:19:52.342Z,100.00
2023-03-04T10:22:29.018Z,100.00
2023-03-04T10:24:57.578Z,100.00
2023-03-04T10:27:24.897Z,100.00
2023-03-04T10:29:51.588Z,100.00
2023-03-04T10:32:20.322Z,100.00
2023-03-04T10:34:47.029Z,100.00
2023-03-04T10:37:13.809Z,100.00
2023-03-04T10:39:46.053Z,100.00
2023-03-04T10:42:15.727Z,100.00
2023-03-04T10:44:55.172Z,100.00
2023-03-04T10:47:25.340Z,100.00
2023-03-04T10:49:54.903Z,100.00
2023-03-04T10:52:21.421Z,100.00
2023-03-04T10:54:52.052Z,100.00
2023-03-04T10:57:41.009Z,100.00
2023-03-04T11:00:23.859Z,100.00
2023-03-04T11:02:50.480Z,100.00
2023-03-04T11:05:26.435Z,100.00
2023-03-04T11:07:57.339Z,100.00
2023-03-04T11:10:36.156Z,100.00
2023-03-04T11:13:11.911Z,100.00
2023-03-04T11:16:02.112Z,100.00
2023-03-04T11:18:46.865Z,100.00
2023-03-04T11:21:39.975Z,100.00
2023-03-04T11:24:28.083Z,100.00
2023-03-04T11:27:15.688Z,100.00
2023-03-04T11:30:21.218Z,100.00
2023-03-04T11:32:51.638Z,100.00
2023-03-04T11:35:45.882Z,100.00
2023-03-04T11:38:21.778Z,100.00
2023-03-04T11:40:57.520Z,100.00
2023-03-04T11:43:35.357Z,100.00
2023-03-04T11:46:23.703Z,100.00
2023-03-04T11:49:17.946Z,100.00
2023-03-04T11:51:55.650Z,100.00
2023-03-04T11:54:41.024Z,100.00
2023-03-04T11:57:33.906Z,100.00
2023-03-04T12:00:19.010Z,100.00
2023-03-04T12:03:07.285Z,100.00
2023-03-04T12:05:55.532Z,99.96
2023-03-04T12:08:43.928Z,97.68
2023-03-04T12:11:10.563Z,97.50
2023-03-04T12:13:43.092Z,95.58
2023-03-04T12:16:46.932Z,92.23
2023-03-04T12:19:35.461Z,90.71
2023-03-04T12:22:31.436Z,89.91
2023-03-04T12:25:35.578Z,91.62
2023-03-04T12:28:18.308Z,96.08
2023-03-04T12:30:53.544Z,98.69
2023-03-04T12:33:26.274Z,100.00
2023-03-04T12:36:10.952Z,100.00
2023-03-04T12:38:40.541Z,98.06
2023-03-04T12:41:19.444Z,97.77
2023-03-04T12:43:49.431Z,100.00
2023-03-04T12:46:19.850Z,100.00
2023-03-04T12:49:09.994Z,100.00
2023-03-04T12:51:54.922Z,100.00
2023-03-04T12:54:34.711Z,97.91
2023-03-04T12:57:23.129Z,95.64
2023-03-04T13:00:00.045Z,95.58
2023-03-04T13:02:35.667Z,93.85
2023-03-04T13:05:26.865Z,91.62
2023-03-04T13:08:12.187Z,90.13
2023-03-04T13:10:38.908Z,90.49
2023-03-04T13:13:37.588Z,90.47
2023-03-04T13:16:12.170Z,89.19
2023-03-04T13:18:39.528Z,88.87
2023-03-04T13:21:12.137Z,89.68
2023-03-04T13:23:39.086Z,89.77
2023-03-04T13:26:30.421Z,88.01
2023-03-04T13:29:11.530Z,87.38
2023-03-04T13:32:04.970Z,88.63
2023-03-04T13:34:48.217Z,89.77
2023-03-04T13:37:33.623Z,85.86
2023-03-04T13:40:34.159Z,83.60
2023-03-04T13:43:39.649Z,81.75
2023-03-04T13:46:38.679Z,80.02
2023-03-04T13:49:14.825Z,79.02
2023-03-04T13:51:46.207Z,77.00
2023-03-04T13:54:27.483Z,76.33
2023-03-04T13:56:59.968Z,78.21
2023-03-04T13:59:32.514Z,80.22
2023-03-04T14:02:09.323Z,79.97
2023-03-04T14:04:42.172Z,81.87
2023-03-04T14:07:25.755Z,82.20
2023-03-04T14:10:05.185Z,85.09
2023-03-04T14:12:44.434Z,85.41
2023-03-04T14:15:13.820Z,85.85
2023-03-04T14:17:49.723Z,85.19
2023-03-04T14:20:34.760Z,84.94
2023-03-04T14:23:04.327Z,82.86
2023-03-04T14:25:36.658Z,80.62
2023-03-04T14:28:17.006Z,80.63
2023-03-04T14:30:52.488Z,81.80
2023-03-04T14:33:25.394Z,82.29
2023-03-04T14:35:55.420Z,84.78
2023-03-04T14:38:31.659Z,84.74
2023-03-04T14:41:07.290Z,83.82
2023-03-04T14:43:51.395Z,84.29
2023-03-04T14:46:18.934Z,85.37
2023-03-04T14:48:50.821Z,84.59
2023-03-04T14:51:28.865Z,84.73
2023-03-04T14:53:56.282Z,86.52
2023-03-04T14:56:30.530Z,86.66
2023-03-04T14:58:58.858Z,86.90
2023-03-04T15:01:37.128Z,87.54
2023-03-04T15:04:05.808Z,87.82
2023-03-04T15:06:35.115Z,88.61
2023-03-04T15:09:19.751Z,88.18
2023-03-04T15:12:03.749Z,89.05
2023-03-04T15:14:50.562Z,88.00
2023-03-04T15:17:23.289Z,87.69
2023-03-04T15:20:21.207Z,88.82
2023-03-04T15:22:53.703Z,89.56
2023-03-04T15:25:20.736Z,90.58
2023-03-04T15:27:48.759Z,88.16
2023-03-04T15:30:31.851Z,87.42
2023-03-04T15:32:59.198Z,88.60
2023-03-04T15:35:30.225Z,87.72
2023-03-04T15:37:57.767Z,85.94
2023-03-04T15:40:28.791Z,86.15
2023-03-04T15:42:57.301Z,83.88
2023-03-04T15:45:27.457Z,83.92
2023-03-04T15:47:54.529Z,82.80
2023-03-04T15:50:21.898Z,83.48
2023-03-04T15:52:50.856Z,84.34
2023-03-04T15:55:21.027Z,83.38
2023-03-04T15:57:52.800Z,82.60
2023-03-04T16:00:19.735Z,82.38
2023-03-04T16:02:47.379Z,83.86
2023-03-04T16:05:15.739Z,83.08
2023-03-04T16:07:45.242Z,82.08
2023-03-04T16:10:36.341Z,82.99
2023-03-04T16:13:03.066Z,83.10
2023-03-04T16:15:30.410Z,83.64
2023-03-04T16:17:57.445Z,84.19
2023-03-04T16:20:28.858Z,83.34
2023-03-04T16:22:58.830Z,83.37
2023-03-04T16:25:25.693Z,81.44
2023-03-04T16:27:53.502Z,81.92
2023-03-04T16:30:23.371Z,82.86
2023-03-04T16:32:50.023Z,82.24
2023-03-04T16:35:28.474Z,83.39
2023-03-04T16:37:55.823Z,82.71
2023-03-04T16:40:28.638Z,84.57
2023-03-04T16:42:55.621Z,83.61
2023-03-04T16:45:27.803Z,81.89
2023-03-04T16:47:54.342Z,80.96
2023-03-04T16:50:27.378Z,78.90
2023-03-04T16:52:55.531Z,78.33
2023-03-04T16:55:25.492Z,77.31
2023-03-04T16:57:52.956Z,78.60
2023-03-04T17:00:21.777Z,76.32
2023-03-04T17:02:57.659Z,76.47
2023-03-04T17:05:27.068Z,77.25
2023-03-04T17:07:53.649Z,76.07
2023-03-04T17:10:20.697Z,75.44
2023-03-04T17:12:47.524Z,75.83
2023-03-04T17:15:14.881Z,77.08
2023-03-04T17:17:42.988Z,80.12
2023-03-04T17:20:13.666Z,79.06
2023-03-04T17:22:40.323Z,77.31
2023-03-04T17:25:07.491Z,78.03
2023-03-04T17:27:34.606Z,80.86
2023-03-04T17:30:01.362Z,80.22
2023-03-04T17:32:28.493Z,80.62
2023-03-04T17:34:55.763Z,80.90
2023-03-04T17:37:23.805Z,81.47
2023-03-04T17:39:50.442Z,80.09
2023-03-04T17:42:17.172Z,79.68
2023-03-04T17:44:45.312Z,80.83
2023-03-04T17:47:12.160Z,80.61
2023-03-04T17:49:38.829Z,80.99
2023-03-04T17:52:05.946Z,82.76
2023-03-04T17:54:32.603Z,86.69
2023-03-04T17:56:59.187Z,89.83
2023-03-04T17:59:25.785Z,91.01
2023-03-04T18:01:54.316Z,92.26
2023-03-04T18:04:21.409Z,92.80
2023-03-04T18:06:48.169Z,93.92
2023-03-04T18:09:14.994Z,93.07
2023-03-04T18:11:42.221Z,93.96
2023-03-04T18:14:08.983Z,93.32
2023-03-04T18:16:35.668Z,93.98
2023-03-04T18:19:02.680Z,94.96
2023-03-04T18:21:30.124Z,95.37
2023-03-04T18:23:57.596Z,94.94
2023-03-04T18:26:25.296Z,93.65
2023-03-04T18:28:53.674Z,94.68
2023-03-04T18:31:26.280Z,94.80
2023-03-04T18:33:53.971Z,95.70
2023-03-04T18:36:20.809Z,95.99
2023-03-04T18:38:47.412Z,94.46
2023-03-04T18:41:15.433Z,94.35
2023-03-04T18:43:42.617Z,94.28
2023-03-04T18:46:26.880Z,92.83
2023-03-04T18:48:56.407Z,91.66
2023-03-04T18:51:23.150Z,91.22
2023-03-04T18:53:49.716Z,91.02
2023-03-04T18:56:20.687Z,91.09
2023-03-04T18:58:51.492Z,91.25
2023-03-04T19:01:21.794Z,92.20
2023-03-04T19:03:48.805Z,91.13
2023-03-04T19:06:15.496Z,91.40
2023-03-04T19:08:42.079Z,90.96
2023-03-04T19:11:08.691Z,90.50
2023-03-04T19:13:35.370Z,90.58
2023-03-04T19:16:01.942Z,91.37
2023-03-04T19:18:29.319Z,90.84
2023-03-04T19:20:59.688Z,90.80
2023-03-04T19:23:27.103Z,91.28
2023-03-04T19:25:53.691Z,91.12
2023-03-04T19:28:20.275Z,91.52
2023-03-04T19:30:46.965Z,90.36
2023-03-04T19:33:13.472Z,92.17
2023-03-04T19:35:42.531Z,91.75
2023-03-04T19:38:09.345Z,91.21
2023-03-04T19:40:40.406Z,92.64
2023-03-04T19:43:07.817Z,92.75
2023-03-04T19:45:34.716Z,91.80
2023-03-04T19:48:03.065Z,92.91
2023-03-04T19:50:31.371Z,94.02
2023-03-04T19:52:58.202Z,93.60
2023-03-04T19:55:24.825Z,92.80
2023-03-04T19:57:51.388Z,93.28
2023-03-04T20:00:18.493Z,95.53
2023-03-04T20:02:46.434Z,95.92
2023-03-04T20:05:13.595Z,95.03
2023-03-04T20:07:40.416Z,94.85
2023-03-04T20:10:07.824Z,93.85
2023-03-04T20:12:36.144Z,94.90
2023-03-04T20:15:05.895Z,93.76
2023-03-04T20:17:32.390Z,94.86
2023-03-04T20:19:58.971Z,94.66
2023-03-04T20:22:25.494Z,96.46
2023-03-04T20:24:54.812Z,96.11
2023-03-04T20:27:21.546Z,95.11
2023-03-04T20:29:49.125Z,95.21
2023-03-04T20:32:15.706Z,95.31
2023-03-04T20:34:42.234Z,96.35
2023-03-04T20:37:08.844Z,98.01
2023-03-04T20:39:35.381Z,97.68
2023-03-04T20:42:02.017Z,98.41
2023-03-04T20:44:28.599Z,100.00
2023-03-04T20:46:55.796Z,100.00
2023-03-04T20:49:25.073Z,100.00
2023-03-04T20:51:53.846Z,100.00
2023-03-04T20:54:20.879Z,100.00
2023-03-04T20:56:48.092Z,100.00
2023-03-04T20:59:15.148Z,100.00
2023-03-04T21:01:43.747Z,100.00
2023-03-04T21:04:10.881Z,100.00
2023-03-04T21:06:38.956Z,100.00
2023-03-04T21:09:08.931Z,100.00
2023-03-04T21:11:42.046Z,100.00
2023-03-04T21:14:19.388Z,100.00
2023-03-04T21:16:46.343Z,100.00
2023-03-04T21:19:15.452Z,100.00
2023-03-04T21:21:42.106Z,99.92
2023-03-04T21:24:14.109Z,100.00
2023-03-04T21:26:43.005Z,100.00
2023-03-04T21:29:09.587Z,100.00
2023-03-04T21:31:40.277Z,100.00
2023-03-04T21:34:16.374Z,100.00
2023-03-04T21:36:43.014Z,100.00
2023-03-04T21:39:16.338Z,100.00
2023-03-04T21:41:43.323Z,100.00
2023-03-04T21:44:18.024Z,100.00
2023-03-04T21:46:58.735Z,100.00
2023-03-04T21:49:26.473Z,100.00
2023-03-04T21:51:53.107Z,100.00
2023-03-04T21:54:20.005Z,100.00
2023-03-04T21:56:46.881Z,100.00
2023-03-04T21:59:14.500Z,100.00
2023-03-04T22:01:41.651Z,100.00
2023-03-04T22:04:08.910Z,100.00
2023-03-04T22:06:35.550Z,100.00
2023-03-04T22:09:04.056Z,100.00
2023-03-04T22:11:31.129Z,100.00
2023-03-04T22:13:59.545Z,100.00
2023-03-04T22:16:27.231Z,100.00
2023-03-04T22:18:54.018Z,100.00
2023-03-04T22:21:21.743Z,100.00
2023-03-04T22:23:48.834Z,100.00
2023-03-04T22:26:18.664Z,100.00
2023-03-04T22:28:46.466Z,100.00
2023-03-04T22:31:26.285Z,100.00
2023-03-04T22:33:52.910Z,100.00
2023-03-04T22:36:19.474Z,100.00
2023-03-04T22:38:46.078Z,100.00
2023-03-04T22:41:17.425Z,100.00
2023-03-04T22:43:44.961Z,100.00
2023-03-04T22:46:26.246Z,100.00
2023-03-04T22:48:55.279Z,100.00
2023-03-04T22:51:22.288Z,100.00
2023-03-04T22:53:50.024Z,100.00
2023-03-04T22:56:17.343Z,100.00
2023-03-04T22:58:44.927Z,100.00
2023-03-04T23:01:13.641Z,100.00
2023-03-04T23:03:42.286Z,100.00
2023-03-04T23:06:21.052Z,100.00
2023-03-04T23:08:49.665Z,100.00
2023-03-04T23:11:20.989Z,100.00
2023-03-04T23:13:48.734Z,100.00
2023-03-04T23:16:16.183Z,100.00
2023-03-04T23:18:46.502Z,100.00
2023-03-04T23:21:16.540Z,100.00
2023-03-04T23:23:43.961Z,100.00
2023-03-04T23:26:21.443Z,100.00
2023-03-04T23:28:48.928Z,100.00
2023-03-04T23:31:15.797Z,100.00
2023-03-04T23:33:43.447Z,100.00
2023-03-04T23:36:15.261Z,100.00
2023-03-04T23:38:44.141Z,100.00
2023-03-04T23:41:13.512Z,100.00
2023-03-04T23:43:40.190Z,100.00
2023-03-04T23:46:09.349Z,100.00
2023-03-04T23:48:36.036Z,100.00
2023-03-04T23:51:02.950Z,100.00
2023-03-04T23:53:30.288Z,100.00
2023-03-04T23:55:56.853Z,100.00
2023-03-04T23:58:23.375Z,100.00
